KPCW

Details ICAO KPCW (PCW)
Name CARL R KELLER FLD
Region United States
Timezone America/New_York (UTC-4.0)
Plans Departing 11
Arriving 5
Stats Elevation 590 ft / 180 m (AMSL)
Location 41.516170° -82.868485°
Runways 2
Magnetic Variation 7.526° W
Sunrise 2018-05-24 10:06:07 UTC / 2018-05-24 06:06:07 Local
Sunset 2018-05-25 00:53:25 UTC / 2018-05-24 20:53:25 Local
Advertisement - Login to hide

Runways

ID Width Length Bearing (true) Bearing (mag) Surface Threshold Offset Overrun Length
09 75 ft / 23 m 4,993 ft / 1,522 m 82.96° 90.49° Asphalt 0 ft / 0 m 0 ft / 0 m
18 75 ft / 23 m 4,007 ft / 1,221 m 177.87° 185.40° Asphalt 0 ft / 0 m 0 ft / 0 m
27 75 ft / 23 m 4,993 ft / 1,522 m 262.97° 270.50° Asphalt 161 ft / 49 m 0 ft / 0 m
36 75 ft / 23 m 4,007 ft / 1,221 m 357.87° 5.40° Asphalt 0 ft / 0 m 0 ft / 0 m

Map

Weather


0- 5 10 15 20 25 30 35+ Temperature / ° C

Clouds and Precipitation
Forecast for 2018-05-24 12:00 UTC. Updated 3 hours ago

Ground ~20,000 ft ~40,000 ft Winds

METAR

KPCW 241415Z AUTO 34004KT 10SM CLR 22/10 A3023 RMK AO2

TAF

Not found

Frequencies

Recorded 118.77 MHz AWOS 3
Approach 126.35 MHz CLEVELAND APP/DEP
Unicom 122.80 MHz CTAF/UNICOM
Warning: Do not use this data for real-world aviation or navigation. No guarantee of current accuracy is given.